sensor_id;sensor_type;location;lat;lon;timestamp;temperature;humidity
72576;DHT22;60613;48.658;2.328;2022-09-16T00:00:40;26.20;47.20
72576;DHT22;60613;48.658;2.328;2022-09-16T00:03:07;26.10;47.10
72576;DHT22;60613;48.658;2.328;2022-09-16T00:05:33;26.10;47.10
72576;DHT22;60613;48.658;2.328;2022-09-16T00:07:59;26.10;47.20
72576;DHT22;60613;48.658;2.328;2022-09-16T00:10:24;26.10;47.20
72576;DHT22;60613;48.658;2.328;2022-09-16T00:12:50;26.00;47.10
72576;DHT22;60613;48.658;2.328;2022-09-16T00:15:16;26.10;47.20
72576;DHT22;60613;48.658;2.328;2022-09-16T00:17:42;26.10;47.10
72576;DHT22;60613;48.658;2.328;2022-09-16T00:20:08;26.10;47.10
72576;DHT22;60613;48.658;2.328;2022-09-16T00:22:34;26.10;47.00
72576;DHT22;60613;48.658;2.328;2022-09-16T00:25:00;26.10;47.00
72576;DHT22;60613;48.658;2.328;2022-09-16T00:27:25;26.10;47.00
72576;DHT22;60613;48.658;2.328;2022-09-16T00:29:51;26.10;46.90
72576;DHT22;60613;48.658;2.328;2022-09-16T00:32:16;26.20;46.90
72576;DHT22;60613;48.658;2.328;2022-09-16T00:34:42;26.20;46.70
72576;DHT22;60613;48.658;2.328;2022-09-16T00:37:08;26.20;46.50
72576;DHT22;60613;48.658;2.328;2022-09-16T00:39:35;26.20;46.50
72576;DHT22;60613;48.658;2.328;2022-09-16T00:42:02;26.20;46.70
72576;DHT22;60613;48.658;2.328;2022-09-16T00:45:03;26.20;46.70
72576;DHT22;60613;48.658;2.328;2022-09-16T00:50:42;26.20;46.50
72576;DHT22;60613;48.658;2.328;2022-09-16T00:53:17;26.20;46.40
72576;DHT22;60613;48.658;2.328;2022-09-16T00:55:45;26.20;46.40
72576;DHT22;60613;48.658;2.328;2022-09-16T00:58:26;26.20;46.30
72576;DHT22;60613;48.658;2.328;2022-09-16T01:00:56;26.20;46.30
72576;DHT22;60613;48.658;2.328;2022-09-16T01:03:22;26.20;46.30
72576;DHT22;60613;48.658;2.328;2022-09-16T01:05:49;26.20;46.20
72576;DHT22;60613;48.658;2.328;2022-09-16T01:08:15;26.20;46.20
72576;DHT22;60613;48.658;2.328;2022-09-16T01:10:41;26.20;46.30
72576;DHT22;60613;48.658;2.328;2022-09-16T01:13:09;26.20;46.10
72576;DHT22;60613;48.658;2.328;2022-09-16T01:15:39;26.20;46.20
72576;DHT22;60613;48.658;2.328;2022-09-16T01:29:43;26.10;46.20
72576;DHT22;60613;48.658;2.328;2022-09-16T01:35:27;26.20;46.10
72576;DHT22;60613;48.658;2.328;2022-09-16T01:46:20;26.20;46.00
72576;DHT22;60613;48.658;2.328;2022-09-16T01:49:20;26.10;46.00
72576;DHT22;60613;48.658;2.328;2022-09-16T01:51:55;26.10;45.90
72576;DHT22;60613;48.658;2.328;2022-09-16T01:54:42;26.10;45.90
72576;DHT22;60613;48.658;2.328;2022-09-16T01:57:45;26.20;46.00
72576;DHT22;60613;48.658;2.328;2022-09-16T02:00:09;26.10;45.70
72576;DHT22;60613;48.658;2.328;2022-09-16T02:02:56;26.10;45.80
72576;DHT22;60613;48.658;2.328;2022-09-16T02:05:39;26.10;45.90
72576;DHT22;60613;48.658;2.328;2022-09-16T02:08:13;26.10;45.80
72576;DHT22;60613;48.658;2.328;2022-09-16T02:10:46;26.10;45.90
72576;DHT22;60613;48.658;2.328;2022-09-16T02:16:17;26.10;45.80
72576;DHT22;60613;48.658;2.328;2022-09-16T02:18:50;26.10;45.90
72576;DHT22;60613;48.658;2.328;2022-09-16T02:21:18;26.10;45.90
72576;DHT22;60613;48.658;2.328;2022-09-16T02:23:49;26.10;45.90
72576;DHT22;60613;48.658;2.328;2022-09-16T02:26:20;26.00;45.80
72576;DHT22;60613;48.658;2.328;2022-09-16T02:28:49;26.00;45.90
72576;DHT22;60613;48.658;2.328;2022-09-16T02:31:16;26.00;45.90
72576;DHT22;60613;48.658;2.328;2022-09-16T02:33:46;26.00;45.90
72576;DHT22;60613;48.658;2.328;2022-09-16T02:36:15;26.00;46.00
72576;DHT22;60613;48.658;2.328;2022-09-16T02:38:45;26.00;45.80
72576;DHT22;60613;48.658;2.328;2022-09-16T02:41:12;26.00;46.00
72576;DHT22;60613;48.658;2.328;2022-09-16T02:43:43;26.00;45.90
72576;DHT22;60613;48.658;2.328;2022-09-16T02:52:02;25.90;45.90
72576;DHT22;60613;48.658;2.328;2022-09-16T02:54:36;26.00;46.00
72576;DHT22;60613;48.658;2.328;2022-09-16T02:57:04;26.00;45.90
72576;DHT22;60613;48.658;2.328;2022-09-16T02:59:31;25.90;45.90
72576;DHT22;60613;48.658;2.328;2022-09-16T03:01:58;26.00;45.90
72576;DHT22;60613;48.658;2.328;2022-09-16T03:04:24;25.90;45.80
72576;DHT22;60613;48.658;2.328;2022-09-16T03:06:50;25.90;45.80
72576;DHT22;60613;48.658;2.328;2022-09-16T03:09:16;25.90;45.80
72576;DHT22;60613;48.658;2.328;2022-09-16T03:20:37;25.90;45.80
72576;DHT22;60613;48.658;2.328;2022-09-16T03:23:34;25.90;45.80
72576;DHT22;60613;48.658;2.328;2022-09-16T03:31:09;25.80;45.80
72576;DHT22;60613;48.658;2.328;2022-09-16T03:36:11;25.90;45.90
72576;DHT22;60613;48.658;2.328;2022-09-16T03:38:40;25.90;45.90
72576;DHT22;60613;48.658;2.328;2022-09-16T03:41:06;25.90;45.80
72576;DHT22;60613;48.658;2.328;2022-09-16T03:43:32;25.90;45.80
72576;DHT22;60613;48.658;2.328;2022-09-16T03:45:58;25.90;45.90
72576;DHT22;60613;48.658;2.328;2022-09-16T03:48:24;25.80;45.70
72576;DHT22;60613;48.658;2.328;2022-09-16T03:50:49;25.80;45.90
72576;DHT22;60613;48.658;2.328;2022-09-16T03:53:15;25.80;45.70
72576;DHT22;60613;48.658;2.328;2022-09-16T03:55:41;25.80;45.80
72576;DHT22;60613;48.658;2.328;2022-09-16T03:58:06;25.80;45.70
72576;DHT22;60613;48.658;2.328;2022-09-16T04:00:32;25.80;45.70
72576;DHT22;60613;48.658;2.328;2022-09-16T04:02:58;25.80;45.80
72576;DHT22;60613;48.658;2.328;2022-09-16T04:05:25;25.80;45.80
72576;DHT22;60613;48.658;2.328;2022-09-16T04:07:51;25.80;45.80
72576;DHT22;60613;48.658;2.328;2022-09-16T04:10:17;25.80;45.80
72576;DHT22;60613;48.658;2.328;2022-09-16T04:12:43;25.80;45.80
72576;DHT22;60613;48.658;2.328;2022-09-16T04:15:09;25.80;45.90
72576;DHT22;60613;48.658;2.328;2022-09-16T04:17:35;25.80;45.80
72576;DHT22;60613;48.658;2.328;2022-09-16T04:20:02;25.80;45.80
72576;DHT22;60613;48.658;2.328;2022-09-16T04:22:29;25.80;45.80
72576;DHT22;60613;48.658;2.328;2022-09-16T04:24:55;25.70;45.70
72576;DHT22;60613;48.658;2.328;2022-09-16T04:27:21;25.70;45.80
72576;DHT22;60613;48.658;2.328;2022-09-16T04:29:46;25.70;45.80
72576;DHT22;60613;48.658;2.328;2022-09-16T04:32:12;25.70;45.80
72576;DHT22;60613;48.658;2.328;2022-09-16T04:34:38;25.70;45.80
72576;DHT22;60613;48.658;2.328;2022-09-16T04:37:03;25.70;45.90
72576;DHT22;60613;48.658;2.328;2022-09-16T04:39:29;25.70;45.80
72576;DHT22;60613;48.658;2.328;2022-09-16T04:41:55;25.70;45.70
72576;DHT22;60613;48.658;2.328;2022-09-16T04:44:20;25.70;45.90
72576;DHT22;60613;48.658;2.328;2022-09-16T04:46:46;25.60;46.90
72576;DHT22;60613;48.658;2.328;2022-09-16T04:49:12;25.60;45.70
72576;DHT22;60613;48.658;2.328;2022-09-16T04:51:38;25.60;45.80
72576;DHT22;60613;48.658;2.328;2022-09-16T04:54:03;25.60;45.70
72576;DHT22;60613;48.658;2.328;2022-09-16T04:56:30;25.60;45.70
72576;DHT22;60613;48.658;2.328;2022-09-16T04:59:01;25.60;45.80
72576;DHT22;60613;48.658;2.328;2022-09-16T05:01:30;25.60;45.70
72576;DHT22;60613;48.658;2.328;2022-09-16T05:03:58;25.60;45.80
72576;DHT22;60613;48.658;2.328;2022-09-16T05:06:30;25.60;45.70
72576;DHT22;60613;48.658;2.328;2022-09-16T05:08:57;25.60;45.70
72576;DHT22;60613;48.658;2.328;2022-09-16T05:11:26;25.60;45.70
72576;DHT22;60613;48.658;2.328;2022-09-16T05:13:52;25.60;45.70
72576;DHT22;60613;48.658;2.328;2022-09-16T05:16:22;25.60;45.70
72576;DHT22;60613;48.658;2.328;2022-09-16T05:18:50;25.60;45.70
72576;DHT22;60613;48.658;2.328;2022-09-16T05:21:18;25.60;45.70
72576;DHT22;60613;48.658;2.328;2022-09-16T05:23:45;25.60;45.70
72576;DHT22;60613;48.658;2.328;2022-09-16T05:26:23;25.50;46.80
72576;DHT22;60613;48.658;2.328;2022-09-16T05:28:49;25.50;45.70
72576;DHT22;60613;48.658;2.328;2022-09-16T05:31:19;25.50;45.70
72576;DHT22;60613;48.658;2.328;2022-09-16T05:33:47;25.50;45.70
72576;DHT22;60613;48.658;2.328;2022-09-16T05:36:17;25.50;45.70
72576;DHT22;60613;48.658;2.328;2022-09-16T05:38:43;25.50;45.70
72576;DHT22;60613;48.658;2.328;2022-09-16T05:41:09;25.50;45.70
72576;DHT22;60613;48.658;2.328;2022-09-16T05:43:39;25.40;45.70
72576;DHT22;60613;48.658;2.328;2022-09-16T05:46:05;25.40;45.60
72576;DHT22;60613;48.658;2.328;2022-09-16T05:48:32;25.40;46.80
72576;DHT22;60613;48.658;2.328;2022-09-16T05:51:04;25.50;45.70
72576;DHT22;60613;48.658;2.328;2022-09-16T05:53:31;25.40;45.60
72576;DHT22;60613;48.658;2.328;2022-09-16T05:58:28;25.40;45.60
72576;DHT22;60613;48.658;2.328;2022-09-16T06:01:05;25.40;45.70
72576;DHT22;60613;48.658;2.328;2022-09-16T06:03:32;25.40;45.70
72576;DHT22;60613;48.658;2.328;2022-09-16T06:06:45;25.40;45.60
72576;DHT22;60613;48.658;2.328;2022-09-16T06:08:58;25.40;45.60
72576;DHT22;60613;48.658;2.328;2022-09-16T06:11:25;25.40;45.60
72576;DHT22;60613;48.658;2.328;2022-09-16T06:13:52;25.40;45.60
72576;DHT22;60613;48.658;2.328;2022-09-16T06:16:20;25.40;45.50
72576;DHT22;60613;48.658;2.328;2022-09-16T06:18:46;25.40;45.60
72576;DHT22;60613;48.658;2.328;2022-09-16T06:21:12;25.40;45.60
72576;DHT22;60613;48.658;2.328;2022-09-16T06:23:38;25.40;45.60
72576;DHT22;60613;48.658;2.328;2022-09-16T06:26:14;25.30;45.50
72576;DHT22;60613;48.658;2.328;2022-09-16T06:28:40;25.40;45.50
72576;DHT22;60613;48.658;2.328;2022-09-16T06:31:17;25.40;45.50
72576;DHT22;60613;48.658;2.328;2022-09-16T06:33:43;25.40;45.40
72576;DHT22;60613;48.658;2.328;2022-09-16T06:36:18;25.40;45.50
72576;DHT22;60613;48.658;2.328;2022-09-16T06:38:44;25.30;45.40
72576;DHT22;60613;48.658;2.328;2022-09-16T06:41:11;25.30;45.40
72576;DHT22;60613;48.658;2.328;2022-09-16T06:43:38;25.30;45.40
72576;DHT22;60613;48.658;2.328;2022-09-16T06:46:12;25.40;45.40
72576;DHT22;60613;48.658;2.328;2022-09-16T06:48:39;25.30;45.40
72576;DHT22;60613;48.658;2.328;2022-09-16T06:51:16;25.30;45.30
72576;DHT22;60613;48.658;2.328;2022-09-16T06:53:43;25.30;45.40
72576;DHT22;60613;48.658;2.328;2022-09-16T06:56:15;25.30;45.30
72576;DHT22;60613;48.658;2.328;2022-09-16T06:58:43;25.30;45.40
72576;DHT22;60613;48.658;2.328;2022-09-16T07:01:14;25.30;45.50
72576;DHT22;60613;48.658;2.328;2022-09-16T07:03:42;25.20;45.70
72576;DHT22;60613;48.658;2.328;2022-09-16T07:06:09;25.20;46.70
72576;DHT22;60613;48.658;2.328;2022-09-16T07:08:36;25.20;45.80
72576;DHT22;60613;48.658;2.328;2022-09-16T07:11:21;25.00;44.10
72576;DHT22;60613;48.658;2.328;2022-09-16T07:13:47;24.60;43.80
72576;DHT22;60613;48.658;2.328;2022-09-16T07:16:16;24.40;43.50
72576;DHT22;60613;48.658;2.328;2022-09-16T07:18:42;24.20;44.20
72576;DHT22;60613;48.658;2.328;2022-09-16T07:21:18;23.90;43.90
72576;DHT22;60613;48.658;2.328;2022-09-16T07:23:45;23.50;44.60
72576;DHT22;60613;48.658;2.328;2022-09-16T07:26:12;23.30;45.40
72576;DHT22;60613;48.658;2.328;2022-09-16T07:28:40;23.10;45.80
72576;DHT22;60613;48.658;2.328;2022-09-16T07:31:09;23.20;47.40
72576;DHT22;60613;48.658;2.328;2022-09-16T07:33:37;22.80;46.60
72576;DHT22;60613;48.658;2.328;2022-09-16T07:36:03;23.00;46.90
72576;DHT22;60613;48.658;2.328;2022-09-16T07:38:30;22.90;46.40
72576;DHT22;60613;48.658;2.328;2022-09-16T07:41:06;22.90;47.10
72576;DHT22;60613;48.658;2.328;2022-09-16T07:43:32;23.00;46.70
72576;DHT22;60613;48.658;2.328;2022-09-16T07:45:58;22.90;46.50
72576;DHT22;60613;48.658;2.328;2022-09-16T07:48:25;22.60;47.20
72576;DHT22;60613;48.658;2.328;2022-09-16T07:50:58;22.60;47.90
72576;DHT22;60613;48.658;2.328;2022-09-16T07:53:28;22.80;47.80
72576;DHT22;60613;48.658;2.328;2022-09-16T07:55:55;23.10;47.40
72576;DHT22;60613;48.658;2.328;2022-09-16T07:58:21;23.40;47.00
72576;DHT22;60613;48.658;2.328;2022-09-16T08:00:48;23.50;46.70
72576;DHT22;60613;48.658;2.328;2022-09-16T08:03:14;23.70;46.40
72576;DHT22;60613;48.658;2.328;2022-09-16T08:05:40;23.80;46.20
72576;DHT22;60613;48.658;2.328;2022-09-16T08:08:06;23.90;46.00
72576;DHT22;60613;48.658;2.328;2022-09-16T08:10:32;24.00;45.70
72576;DHT22;60613;48.658;2.328;2022-09-16T08:12:58;24.10;45.50
72576;DHT22;60613;48.658;2.328;2022-09-16T08:15:23;24.20;45.50
72576;DHT22;60613;48.658;2.328;2022-09-16T08:17:49;24.20;45.80
72576;DHT22;60613;48.658;2.328;2022-09-16T08:20:15;24.20;45.70
72576;DHT22;60613;48.658;2.328;2022-09-16T08:22:40;24.20;46.10
72576;DHT22;60613;48.658;2.328;2022-09-16T08:25:06;24.20;46.10
72576;DHT22;60613;48.658;2.328;2022-09-16T08:27:35;24.30;46.30
72576;DHT22;60613;48.658;2.328;2022-09-16T08:30:01;24.40;46.10
72576;DHT22;60613;48.658;2.328;2022-09-16T08:32:26;24.40;45.90
72576;DHT22;60613;48.658;2.328;2022-09-16T08:34:52;24.50;45.80
72576;DHT22;60613;48.658;2.328;2022-09-16T08:37:18;24.50;45.60
72576;DHT22;60613;48.658;2.328;2022-09-16T08:39:43;24.60;45.80
72576;DHT22;60613;48.658;2.328;2022-09-16T08:45:43;24.60;45.30
72576;DHT22;60613;48.658;2.328;2022-09-16T08:50:52;24.70;44.60
72576;DHT22;60613;48.658;2.328;2022-09-16T08:56:13;24.80;44.40
72576;DHT22;60613;48.658;2.328;2022-09-16T08:58:44;24.80;44.00
72576;DHT22;60613;48.658;2.328;2022-09-16T09:03:54;24.70;43.90
72576;DHT22;60613;48.658;2.328;2022-09-16T09:06:38;24.80;43.90
72576;DHT22;60613;48.658;2.328;2022-09-16T09:28:34;25.00;43.30
72576;DHT22;60613;48.658;2.328;2022-09-16T09:42:09;24.90;42.50
72576;DHT22;60613;48.658;2.328;2022-09-16T09:47:24;25.00;41.60
72576;DHT22;60613;48.658;2.328;2022-09-16T09:49:56;24.90;41.10
72576;DHT22;60613;48.658;2.328;2022-09-16T09:52:52;24.90;41.30
72576;DHT22;60613;48.658;2.328;2022-09-16T09:55:22;24.70;41.30
72576;DHT22;60613;48.658;2.328;2022-09-16T10:00:18;24.70;41.20
72576;DHT22;60613;48.658;2.328;2022-09-16T10:02:47;24.70;41.50
72576;DHT22;60613;48.658;2.328;2022-09-16T10:07:50;24.80;42.60
72576;DHT22;60613;48.658;2.328;2022-09-16T10:10:20;24.90;42.80
72576;DHT22;60613;48.658;2.328;2022-09-16T10:12:46;25.00;42.40
72576;DHT22;60613;48.658;2.328;2022-09-16T10:15:28;25.00;42.90
72576;DHT22;60613;48.658;2.328;2022-09-16T10:17:55;25.00;44.40
72576;DHT22;60613;48.658;2.328;2022-09-16T10:20:28;25.00;42.50
72576;DHT22;60613;48.658;2.328;2022-09-16T10:23:01;25.00;42.70
72576;DHT22;60613;48.658;2.328;2022-09-16T10:25:29;25.00;42.70
72576;DHT22;60613;48.658;2.328;2022-09-16T10:28:00;25.20;43.50
72576;DHT22;60613;48.658;2.328;2022-09-16T10:30:44;25.20;44.20
72576;DHT22;60613;48.658;2.328;2022-09-16T10:33:30;25.20;44.60
72576;DHT22;60613;48.658;2.328;2022-09-16T10:36:00;25.30;45.40
72576;DHT22;60613;48.658;2.328;2022-09-16T10:38:40;25.40;44.50
72576;DHT22;60613;48.658;2.328;2022-09-16T10:41:20;25.40;44.50
72576;DHT22;60613;48.658;2.328;2022-09-16T10:43:55;25.40;44.50
72576;DHT22;60613;48.658;2.328;2022-09-16T10:46:21;25.50;44.40
72576;DHT22;60613;48.658;2.328;2022-09-16T10:48:49;25.60;44.60
72576;DHT22;60613;48.658;2.328;2022-09-16T10:51:27;25.70;44.10
72576;DHT22;60613;48.658;2.328;2022-09-16T10:54:02;25.70;44.50
72576;DHT22;60613;48.658;2.328;2022-09-16T10:56:34;25.70;44.50
72576;DHT22;60613;48.658;2.328;2022-09-16T10:59:12;25.70;44.30
72576;DHT22;60613;48.658;2.328;2022-09-16T11:15:25;25.40;45.20
72576;DHT22;60613;48.658;2.328;2022-09-16T11:19:03;25.30;45.30
72576;DHT22;60613;48.658;2.328;2022-09-16T11:37:35;25.20;45.00
72576;DHT22;60613;48.658;2.328;2022-09-16T11:46:01;25.30;45.20
72576;DHT22;60613;48.658;2.328;2022-09-16T11:51:10;25.50;45.00
72576;DHT22;60613;48.658;2.328;2022-09-16T11:54:01;25.60;45.70
72576;DHT22;60613;48.658;2.328;2022-09-16T11:56:48;25.60;44.60
72576;DHT22;60613;48.658;2.328;2022-09-16T12:05:39;25.80;43.60
72576;DHT22;60613;48.658;2.328;2022-09-16T12:08:20;25.80;43.40
72576;DHT22;60613;48.658;2.328;2022-09-16T12:11:01;25.70;43.50
72576;DHT22;60613;48.658;2.328;2022-09-16T12:13:37;25.60;43.20
72576;DHT22;60613;48.658;2.328;2022-09-16T12:16:08;25.60;42.70
72576;DHT22;60613;48.658;2.328;2022-09-16T12:18:51;25.50;43.20
72576;DHT22;60613;48.658;2.328;2022-09-16T12:21:39;25.50;42.50
72576;DHT22;60613;48.658;2.328;2022-09-16T12:25:07;25.50;41.70
72576;DHT22;60613;48.658;2.328;2022-09-16T12:30:21;25.60;43.70
72576;DHT22;60613;48.658;2.328;2022-09-16T12:33:24;25.80;43.80
72576;DHT22;60613;48.658;2.328;2022-09-16T12:36:15;25.90;43.50
72576;DHT22;60613;48.658;2.328;2022-09-16T12:38:42;26.00;43.40
72576;DHT22;60613;48.658;2.328;2022-09-16T12:44:13;26.10;43.40
72576;DHT22;60613;48.658;2.328;2022-09-16T12:49:34;26.10;43.40
72576;DHT22;60613;48.658;2.328;2022-09-16T13:01:23;26.20;43.60
72576;DHT22;60613;48.658;2.328;2022-09-16T13:03:56;26.10;43.50
72576;DHT22;60613;48.658;2.328;2022-09-16T13:06:25;26.20;43.60
72576;DHT22;60613;48.658;2.328;2022-09-16T13:08:53;26.10;43.50
72576;DHT22;60613;48.658;2.328;2022-09-16T13:11:27;26.10;43.50
72576;DHT22;60613;48.658;2.328;2022-09-16T13:13:57;26.20;43.40
72576;DHT22;60613;48.658;2.328;2022-09-16T13:16:34;26.20;43.90
72576;DHT22;60613;48.658;2.328;2022-09-16T13:21:38;26.10;43.90
72576;DHT22;60613;48.658;2.328;2022-09-16T13:26:58;26.20;44.10
72576;DHT22;60613;48.658;2.328;2022-09-16T13:31:58;26.20;44.00
72576;DHT22;60613;48.658;2.328;2022-09-16T13:34:24;26.20;43.70
72576;DHT22;60613;48.658;2.328;2022-09-16T13:36:49;26.20;43.50
72576;DHT22;60613;48.658;2.328;2022-09-16T13:39:30;26.20;43.40
72576;DHT22;60613;48.658;2.328;2022-09-16T13:41:56;26.20;43.40
72576;DHT22;60613;48.658;2.328;2022-09-16T13:49:34;26.20;43.10
72576;DHT22;60613;48.658;2.328;2022-09-16T13:52:09;26.20;43.40
72576;DHT22;60613;48.658;2.328;2022-09-16T13:54:48;26.20;43.50
72576;DHT22;60613;48.658;2.328;2022-09-16T13:57:25;26.20;43.40
72576;DHT22;60613;48.658;2.328;2022-09-16T14:00:06;26.30;43.50
72576;DHT22;60613;48.658;2.328;2022-09-16T14:13:40;26.30;43.10
72576;DHT22;60613;48.658;2.328;2022-09-16T14:16:17;26.30;43.20
72576;DHT22;60613;48.658;2.328;2022-09-16T14:21:21;26.20;43.30
72576;DHT22;60613;48.658;2.328;2022-09-16T14:23:48;26.20;43.80
72576;DHT22;60613;48.658;2.328;2022-09-16T14:26:16;26.00;43.60
72576;DHT22;60613;48.658;2.328;2022-09-16T14:28:43;25.90;43.50
72576;DHT22;60613;48.658;2.328;2022-09-16T14:31:18;25.70;43.90
72576;DHT22;60613;48.658;2.328;2022-09-16T14:34:00;25.60;44.40
72576;DHT22;60613;48.658;2.328;2022-09-16T14:36:35;25.60;44.50
72576;DHT22;60613;48.658;2.328;2022-09-16T14:39:09;25.50;44.60
72576;DHT22;60613;48.658;2.328;2022-09-16T14:41:55;25.40;44.60
72576;DHT22;60613;48.658;2.328;2022-09-16T14:44:36;25.40;44.70
72576;DHT22;60613;48.658;2.328;2022-09-16T14:49:56;25.40;44.70
72576;DHT22;60613;48.658;2.328;2022-09-16T14:52:28;25.30;44.70
72576;DHT22;60613;48.658;2.328;2022-09-16T14:54:56;25.30;46.00
72576;DHT22;60613;48.658;2.328;2022-09-16T14:57:24;25.30;44.90
72576;DHT22;60613;48.658;2.328;2022-09-16T15:00:00;25.30;44.70
72576;DHT22;60613;48.658;2.328;2022-09-16T15:02:31;25.20;44.80
72576;DHT22;60613;48.658;2.328;2022-09-16T15:07:47;25.20;44.80
72576;DHT22;60613;48.658;2.328;2022-09-16T15:10:27;25.20;44.90
72576;DHT22;60613;48.658;2.328;2022-09-16T15:13:00;25.20;44.90
72576;DHT22;60613;48.658;2.328;2022-09-16T15:15:29;25.20;44.90
72576;DHT22;60613;48.658;2.328;2022-09-16T15:20:25;25.20;44.80
72576;DHT22;60613;48.658;2.328;2022-09-16T15:22:53;25.20;44.90
72576;DHT22;60613;48.658;2.328;2022-09-16T15:25:21;25.10;44.70
72576;DHT22;60613;48.658;2.328;2022-09-16T15:27:47;25.10;45.10
72576;DHT22;60613;48.658;2.328;2022-09-16T15:30:24;25.20;44.30
72576;DHT22;60613;48.658;2.328;2022-09-16T15:32:50;25.20;44.80
72576;DHT22;60613;48.658;2.328;2022-09-16T15:35:23;25.20;44.60
72576;DHT22;60613;48.658;2.328;2022-09-16T15:37:50;25.30;44.70
72576;DHT22;60613;48.658;2.328;2022-09-16T15:43:02;25.50;44.00
72576;DHT22;60613;48.658;2.328;2022-09-16T15:45:28;25.60;43.90
72576;DHT22;60613;48.658;2.328;2022-09-16T15:48:01;25.60;43.50
72576;DHT22;60613;48.658;2.328;2022-09-16T15:50:37;25.70;44.10
72576;DHT22;60613;48.658;2.328;2022-09-16T15:58:49;25.80;43.20
72576;DHT22;60613;48.658;2.328;2022-09-16T16:01:38;25.80;43.50
72576;DHT22;60613;48.658;2.328;2022-09-16T16:04:08;25.80;43.00
72576;DHT22;60613;48.658;2.328;2022-09-16T16:12:00;26.10;42.60
72576;DHT22;60613;48.658;2.328;2022-09-16T16:14:31;26.20;42.70
72576;DHT22;60613;48.658;2.328;2022-09-16T16:17:14;26.30;42.30
72576;DHT22;60613;48.658;2.328;2022-09-16T16:19:45;26.40;42.00
72576;DHT22;60613;48.658;2.328;2022-09-16T16:22:12;26.40;41.80
72576;DHT22;60613;48.658;2.328;2022-09-16T16:24:37;26.10;42.20
72576;DHT22;60613;48.658;2.328;2022-09-16T16:27:03;25.90;42.50
72576;DHT22;60613;48.658;2.328;2022-09-16T16:29:29;25.70;43.00
72576;DHT22;60613;48.658;2.328;2022-09-16T16:32:10;25.60;43.80
72576;DHT22;60613;48.658;2.328;2022-09-16T16:34:46;25.50;43.80
72576;DHT22;60613;48.658;2.328;2022-09-16T16:37:15;25.40;43.60
72576;DHT22;60613;48.658;2.328;2022-09-16T16:39:42;25.40;43.90
72576;DHT22;60613;48.658;2.328;2022-09-16T16:42:10;25.40;43.80
72576;DHT22;60613;48.658;2.328;2022-09-16T16:44:37;25.40;44.10
72576;DHT22;60613;48.658;2.328;2022-09-16T16:47:03;25.50;43.60
72576;DHT22;60613;48.658;2.328;2022-09-16T16:49:29;25.60;43.40
72576;DHT22;60613;48.658;2.328;2022-09-16T16:51:55;25.60;43.40
72576;DHT22;60613;48.658;2.328;2022-09-16T16:54:22;25.60;43.50
72576;DHT22;60613;48.658;2.328;2022-09-16T16:56:49;25.60;43.50
72576;DHT22;60613;48.658;2.328;2022-09-16T16:59:15;25.60;43.50
72576;DHT22;60613;48.658;2.328;2022-09-16T17:01:42;25.60;43.30
72576;DHT22;60613;48.658;2.328;2022-09-16T17:04:08;25.60;43.40
72576;DHT22;60613;48.658;2.328;2022-09-16T17:06:34;25.60;43.30
72576;DHT22;60613;48.658;2.328;2022-09-16T17:09:02;25.60;43.30
72576;DHT22;60613;48.658;2.328;2022-09-16T17:11:28;25.60;43.30
72576;DHT22;60613;48.658;2.328;2022-09-16T17:13:58;25.60;43.40
72576;DHT22;60613;48.658;2.328;2022-09-16T17:16:27;25.60;42.80
72576;DHT22;60613;48.658;2.328;2022-09-16T17:18:54;25.60;43.00
72576;DHT22;60613;48.658;2.328;2022-09-16T17:21:25;25.50;43.40
72576;DHT22;60613;48.658;2.328;2022-09-16T17:23:52;25.50;43.30
72576;DHT22;60613;48.658;2.328;2022-09-16T17:26:18;25.50;43.60
72576;DHT22;60613;48.658;2.328;2022-09-16T17:28:46;25.50;43.40
72576;DHT22;60613;48.658;2.328;2022-09-16T17:31:27;25.40;43.40
72576;DHT22;60613;48.658;2.328;2022-09-16T17:33:59;25.40;43.40
72576;DHT22;60613;48.658;2.328;2022-09-16T17:36:27;25.40;43.50
72576;DHT22;60613;48.658;2.328;2022-09-16T17:39:03;25.40;43.60
72576;DHT22;60613;48.658;2.328;2022-09-16T17:41:33;25.40;43.70
72576;DHT22;60613;48.658;2.328;2022-09-16T17:44:06;25.50;44.90
72576;DHT22;60613;48.658;2.328;2022-09-16T17:46:33;25.40;44.20
72576;DHT22;60613;48.658;2.328;2022-09-16T17:49:04;25.40;43.60
72576;DHT22;60613;48.658;2.328;2022-09-16T17:51:32;25.30;43.60
72576;DHT22;60613;48.658;2.328;2022-09-16T17:53:58;25.30;43.70
72576;DHT22;60613;48.658;2.328;2022-09-16T17:56:24;25.20;43.60
72576;DHT22;60613;48.658;2.328;2022-09-16T17:58:51;25.30;43.70
72576;DHT22;60613;48.658;2.328;2022-09-16T18:01:20;25.20;43.60
72576;DHT22;60613;48.658;2.328;2022-09-16T18:03:47;25.20;43.50
72576;DHT22;60613;48.658;2.328;2022-09-16T18:06:16;25.30;43.60
72576;DHT22;60613;48.658;2.328;2022-09-16T18:08:42;25.20;43.60
72576;DHT22;60613;48.658;2.328;2022-09-16T18:11:09;25.20;43.60
72576;DHT22;60613;48.658;2.328;2022-09-16T18:13:36;25.20;44.30
72576;DHT22;60613;48.658;2.328;2022-09-16T18:16:10;25.20;44.00
72576;DHT22;60613;48.658;2.328;2022-09-16T18:18:38;25.20;43.80
72576;DHT22;60613;48.658;2.328;2022-09-16T18:21:06;25.10;43.80
72576;DHT22;60613;48.658;2.328;2022-09-16T18:23:32;25.10;43.80
72576;DHT22;60613;48.658;2.328;2022-09-16T18:26:02;25.10;43.80
72576;DHT22;60613;48.658;2.328;2022-09-16T18:28:29;25.10;43.80
72576;DHT22;60613;48.658;2.328;2022-09-16T18:31:05;25.10;43.80
72576;DHT22;60613;48.658;2.328;2022-09-16T18:33:32;25.10;43.80
72576;DHT22;60613;48.658;2.328;2022-09-16T18:36:06;25.10;43.90
72576;DHT22;60613;48.658;2.328;2022-09-16T18:38:32;25.00;43.70
72576;DHT22;60613;48.658;2.328;2022-09-16T18:41:08;25.00;43.70
72576;DHT22;60613;48.658;2.328;2022-09-16T18:43:37;25.00;43.90
72576;DHT22;60613;48.658;2.328;2022-09-16T18:46:07;25.00;43.70
72576;DHT22;60613;48.658;2.328;2022-09-16T18:48:33;25.00;43.70
72576;DHT22;60613;48.658;2.328;2022-09-16T18:50:59;25.00;43.90
72576;DHT22;60613;48.658;2.328;2022-09-16T18:53:24;25.00;43.70
72576;DHT22;60613;48.658;2.328;2022-09-16T18:55:54;25.00;43.80
72576;DHT22;60613;48.658;2.328;2022-09-16T18:58:20;25.00;43.60
72576;DHT22;60613;48.658;2.328;2022-09-16T19:00:45;25.00;43.60
72576;DHT22;60613;48.658;2.328;2022-09-16T19:03:13;25.00;43.40
72576;DHT22;60613;48.658;2.328;2022-09-16T19:05:39;25.00;43.10
72576;DHT22;60613;48.658;2.328;2022-09-16T19:08:05;25.00;43.70
72576;DHT22;60613;48.658;2.328;2022-09-16T19:10:32;25.00;43.20
72576;DHT22;60613;48.658;2.328;2022-09-16T19:12:58;25.00;43.30
72576;DHT22;60613;48.658;2.328;2022-09-16T19:15:24;25.00;43.40
72576;DHT22;60613;48.658;2.328;2022-09-16T19:17:50;25.00;43.40
72576;DHT22;60613;48.658;2.328;2022-09-16T19:20:15;25.00;43.50
72576;DHT22;60613;48.658;2.328;2022-09-16T19:22:41;25.00;43.70
72576;DHT22;60613;48.658;2.328;2022-09-16T19:25:07;25.00;43.70